sensor_id;sensor_type;location;lat;lon;timestamp;temperature;humidity
38237;DHT22;50101;49.438;11.098;2022-11-30T00:01:15;17.90;61.70
38237;DHT22;50101;49.438;11.098;2022-11-30T00:03:42;17.90;61.80
38237;DHT22;50101;49.438;11.098;2022-11-30T00:06:11;17.90;61.80
38237;DHT22;50101;49.438;11.098;2022-11-30T00:08:39;17.90;61.80
38237;DHT22;50101;49.438;11.098;2022-11-30T00:11:10;17.90;61.70
38237;DHT22;50101;49.438;11.098;2022-11-30T00:13:36;17.90;61.70
38237;DHT22;50101;49.438;11.098;2022-11-30T00:16:04;17.90;61.70
38237;DHT22;50101;49.438;11.098;2022-11-30T00:18:31;17.90;61.70
38237;DHT22;50101;49.438;11.098;2022-11-30T00:21:02;17.90;61.60
38237;DHT22;50101;49.438;11.098;2022-11-30T00:23:33;17.90;61.60
38237;DHT22;50101;49.438;11.098;2022-11-30T00:26:01;17.90;61.50
38237;DHT22;50101;49.438;11.098;2022-11-30T00:28:30;17.90;61.60
38237;DHT22;50101;49.438;11.098;2022-11-30T00:31:01;17.90;61.50
38237;DHT22;50101;49.438;11.098;2022-11-30T00:33:31;17.90;61.40
38237;DHT22;50101;49.438;11.098;2022-11-30T00:36:00;17.90;61.50
38237;DHT22;50101;49.438;11.098;2022-11-30T00:38:28;17.90;61.40
38237;DHT22;50101;49.438;11.098;2022-11-30T00:40:54;17.90;61.40
38237;DHT22;50101;49.438;11.098;2022-11-30T00:43:22;17.90;61.40
38237;DHT22;50101;49.438;11.098;2022-11-30T00:45:49;17.80;61.30
38237;DHT22;50101;49.438;11.098;2022-11-30T00:48:15;17.90;62.10
38237;DHT22;50101;49.438;11.098;2022-11-30T00:50:42;17.80;61.20
38237;DHT22;50101;49.438;11.098;2022-11-30T00:53:09;17.90;61.40
38237;DHT22;50101;49.438;11.098;2022-11-30T00:55:35;17.90;61.40
38237;DHT22;50101;49.438;11.098;2022-11-30T00:58:02;17.80;61.20
38237;DHT22;50101;49.438;11.098;2022-11-30T01:00:29;17.80;61.20
38237;DHT22;50101;49.438;11.098;2022-11-30T01:02:56;17.80;61.10
38237;DHT22;50101;49.438;11.098;2022-11-30T01:05:24;17.80;61.20
38237;DHT22;50101;49.438;11.098;2022-11-30T01:07:51;17.80;61.10
38237;DHT22;50101;49.438;11.098;2022-11-30T01:10:18;17.80;61.00
38237;DHT22;50101;49.438;11.098;2022-11-30T01:12:45;17.80;61.00
38237;DHT22;50101;49.438;11.098;2022-11-30T01:15:11;17.80;60.80
38237;DHT22;50101;49.438;11.098;2022-11-30T01:17:38;17.80;60.80
38237;DHT22;50101;49.438;11.098;2022-11-30T01:20:06;17.80;60.90
38237;DHT22;50101;49.438;11.098;2022-11-30T01:22:34;17.80;60.90
38237;DHT22;50101;49.438;11.098;2022-11-30T01:25:01;17.80;60.80
38237;DHT22;50101;49.438;11.098;2022-11-30T01:27:28;17.80;60.80
38237;DHT22;50101;49.438;11.098;2022-11-30T01:29:55;17.80;60.80
38237;DHT22;50101;49.438;11.098;2022-11-30T01:32:21;17.80;60.80
38237;DHT22;50101;49.438;11.098;2022-11-30T01:34:48;17.80;60.80
38237;DHT22;50101;49.438;11.098;2022-11-30T01:37:15;17.80;60.80
38237;DHT22;50101;49.438;11.098;2022-11-30T01:39:41;17.80;60.80
38237;DHT22;50101;49.438;11.098;2022-11-30T01:42:14;17.80;60.80
38237;DHT22;50101;49.438;11.098;2022-11-30T01:44:54;17.80;60.80
38237;DHT22;50101;49.438;11.098;2022-11-30T01:47:42;17.80;60.80
38237;DHT22;50101;49.438;11.098;2022-11-30T01:50:25;17.80;60.80
38237;DHT22;50101;49.438;11.098;2022-11-30T01:52:55;17.80;60.80
38237;DHT22;50101;49.438;11.098;2022-11-30T01:55:38;17.80;60.80
38237;DHT22;50101;49.438;11.098;2022-11-30T01:58:14;17.80;60.80
38237;DHT22;50101;49.438;11.098;2022-11-30T02:00:44;17.80;61.50
38237;DHT22;50101;49.438;11.098;2022-11-30T02:03:42;17.80;60.80
38237;DHT22;50101;49.438;11.098;2022-11-30T02:06:10;17.80;60.80
38237;DHT22;50101;49.438;11.098;2022-11-30T02:08:37;17.80;60.70
38237;DHT22;50101;49.438;11.098;2022-11-30T02:11:05;17.80;60.60
38237;DHT22;50101;49.438;11.098;2022-11-30T02:13:50;17.70;60.60
38237;DHT22;50101;49.438;11.098;2022-11-30T02:16:40;17.70;60.60
38237;DHT22;50101;49.438;11.098;2022-11-30T02:30:34;17.70;60.60
38237;DHT22;50101;49.438;11.098;2022-11-30T02:33:14;17.70;60.60
38237;DHT22;50101;49.438;11.098;2022-11-30T02:35:43;17.70;60.60
38237;DHT22;50101;49.438;11.098;2022-11-30T02:38:21;17.70;60.40
38237;DHT22;50101;49.438;11.098;2022-11-30T02:40:48;17.80;60.60
38237;DHT22;50101;49.438;11.098;2022-11-30T02:43:15;17.70;59.80
38237;DHT22;50101;49.438;11.098;2022-11-30T02:46:25;17.70;60.50
38237;DHT22;50101;49.438;11.098;2022-11-30T02:49:05;17.70;60.50
38237;DHT22;50101;49.438;11.098;2022-11-30T02:51:34;17.70;60.30
38237;DHT22;50101;49.438;11.098;2022-11-30T02:54:03;17.80;60.50
38237;DHT22;50101;49.438;11.098;2022-11-30T02:56:30;17.70;60.40
38237;DHT22;50101;49.438;11.098;2022-11-30T02:58:58;17.70;60.40
38237;DHT22;50101;49.438;11.098;2022-11-30T03:01:24;17.70;60.40
38237;DHT22;50101;49.438;11.098;2022-11-30T03:03:51;17.70;60.30
38237;DHT22;50101;49.438;11.098;2022-11-30T03:06:18;17.70;60.40
38237;DHT22;50101;49.438;11.098;2022-11-30T03:08:44;17.70;60.40
38237;DHT22;50101;49.438;11.098;2022-11-30T03:11:11;17.70;60.30
38237;DHT22;50101;49.438;11.098;2022-11-30T03:13:38;17.70;60.40
38237;DHT22;50101;49.438;11.098;2022-11-30T03:16:08;17.70;60.30
38237;DHT22;50101;49.438;11.098;2022-11-30T03:18:38;17.70;60.30
38237;DHT22;50101;49.438;11.098;2022-11-30T03:21:06;17.70;60.40
38237;DHT22;50101;49.438;11.098;2022-11-30T03:23:33;17.70;60.30
38237;DHT22;50101;49.438;11.098;2022-11-30T03:26:01;17.70;60.30
38237;DHT22;50101;49.438;11.098;2022-11-30T03:28:28;17.60;60.10
38237;DHT22;50101;49.438;11.098;2022-11-30T03:30:55;17.70;60.30
38237;DHT22;50101;49.438;11.098;2022-11-30T03:33:24;17.70;60.30
38237;DHT22;50101;49.438;11.098;2022-11-30T03:36:05;16.00;58.80
38237;DHT22;50101;49.438;11.098;2022-11-30T03:38:32;17.70;60.20
38237;DHT22;50101;49.438;11.098;2022-11-30T03:41:02;17.70;60.20
38237;DHT22;50101;49.438;11.098;2022-11-30T03:43:29;17.60;60.00
38237;DHT22;50101;49.438;11.098;2022-11-30T03:45:56;17.60;60.10
38237;DHT22;50101;49.438;11.098;2022-11-30T03:48:23;17.70;60.20
38237;DHT22;50101;49.438;11.098;2022-11-30T03:50:50;17.60;60.10
38237;DHT22;50101;49.438;11.098;2022-11-30T03:53:17;17.60;60.00
38237;DHT22;50101;49.438;11.098;2022-11-30T03:55:44;17.60;60.00
38237;DHT22;50101;49.438;11.098;2022-11-30T03:58:11;17.60;60.00
38237;DHT22;50101;49.438;11.098;2022-11-30T04:00:38;17.60;59.50
38237;DHT22;50101;49.438;11.098;2022-11-30T04:03:05;17.60;60.00
38237;DHT22;50101;49.438;11.098;2022-11-30T04:05:31;17.60;60.00
38237;DHT22;50101;49.438;11.098;2022-11-30T04:07:58;17.60;60.10
38237;DHT22;50101;49.438;11.098;2022-11-30T04:10:25;17.60;60.10
38237;DHT22;50101;49.438;11.098;2022-11-30T04:12:51;17.60;60.10
38237;DHT22;50101;49.438;11.098;2022-11-30T04:15:18;17.60;60.10
38237;DHT22;50101;49.438;11.098;2022-11-30T04:17:45;17.60;60.10
38237;DHT22;50101;49.438;11.098;2022-11-30T04:20:11;17.60;60.10
38237;DHT22;50101;49.438;11.098;2022-11-30T04:22:38;17.60;60.20
38237;DHT22;50101;49.438;11.098;2022-11-30T04:25:05;17.60;60.10
38237;DHT22;50101;49.438;11.098;2022-11-30T04:27:32;17.60;60.10
38237;DHT22;50101;49.438;11.098;2022-11-30T04:29:58;17.60;60.20
38237;DHT22;50101;49.438;11.098;2022-11-30T04:32:25;17.60;60.10
38237;DHT22;50101;49.438;11.098;2022-11-30T04:34:52;17.60;60.20
38237;DHT22;50101;49.438;11.098;2022-11-30T04:37:18;17.60;60.20
38237;DHT22;50101;49.438;11.098;2022-11-30T04:39:45;17.60;60.20
38237;DHT22;50101;49.438;11.098;2022-11-30T04:42:12;17.60;60.20
38237;DHT22;50101;49.438;11.098;2022-11-30T04:44:38;17.60;60.30
38237;DHT22;50101;49.438;11.098;2022-11-30T04:47:05;17.60;60.20
38237;DHT22;50101;49.438;11.098;2022-11-30T04:49:32;17.60;60.30
38237;DHT22;50101;49.438;11.098;2022-11-30T04:51:58;17.60;60.30
38237;DHT22;50101;49.438;11.098;2022-11-30T04:54:25;17.60;60.30
38237;DHT22;50101;49.438;11.098;2022-11-30T04:56:51;17.60;60.30
38237;DHT22;50101;49.438;11.098;2022-11-30T04:59:18;17.60;60.30
38237;DHT22;50101;49.438;11.098;2022-11-30T05:01:45;17.60;60.30
38237;DHT22;50101;49.438;11.098;2022-11-30T05:04:11;17.50;60.20
38237;DHT22;50101;49.438;11.098;2022-11-30T05:06:38;17.60;60.20
38237;DHT22;50101;49.438;11.098;2022-11-30T05:09:05;17.60;60.30
38237;DHT22;50101;49.438;11.098;2022-11-30T05:11:31;17.60;60.20
38237;DHT22;50101;49.438;11.098;2022-11-30T05:13:58;17.60;60.30
38237;DHT22;50101;49.438;11.098;2022-11-30T05:16:24;17.60;60.40
38237;DHT22;50101;49.438;11.098;2022-11-30T05:18:51;17.60;60.40
38237;DHT22;50101;49.438;11.098;2022-11-30T05:21:18;17.60;60.50
38237;DHT22;50101;49.438;11.098;2022-11-30T05:23:44;17.60;60.40
38237;DHT22;50101;49.438;11.098;2022-11-30T05:26:14;17.60;60.50
38237;DHT22;50101;49.438;11.098;2022-11-30T05:28:41;17.60;60.60
38237;DHT22;50101;49.438;11.098;2022-11-30T05:31:07;17.60;60.60
38237;DHT22;50101;49.438;11.098;2022-11-30T05:33:34;17.60;60.60
38237;DHT22;50101;49.438;11.098;2022-11-30T05:36:01;17.60;60.60
38237;DHT22;50101;49.438;11.098;2022-11-30T05:38:34;17.60;60.60
38237;DHT22;50101;49.438;11.098;2022-11-30T05:41:01;17.60;60.60
38237;DHT22;50101;49.438;11.098;2022-11-30T05:43:28;17.60;60.60
38237;DHT22;50101;49.438;11.098;2022-11-30T05:45:59;17.60;60.70
38237;DHT22;50101;49.438;11.098;2022-11-30T05:48:26;17.60;60.80
38237;DHT22;50101;49.438;11.098;2022-11-30T05:50:53;17.60;60.20
38237;DHT22;50101;49.438;11.098;2022-11-30T05:53:20;17.70;60.90
38237;DHT22;50101;49.438;11.098;2022-11-30T05:55:47;17.70;61.00
38237;DHT22;50101;49.438;11.098;2022-11-30T05:58:13;17.70;60.90
38237;DHT22;50101;49.438;11.098;2022-11-30T06:00:40;17.70;60.30
38237;DHT22;50101;49.438;11.098;2022-11-30T06:03:06;17.70;60.90
38237;DHT22;50101;49.438;11.098;2022-11-30T06:05:34;17.70;60.90
38237;DHT22;50101;49.438;11.098;2022-11-30T06:08:02;17.70;60.90
38237;DHT22;50101;49.438;11.098;2022-11-30T06:10:28;17.70;60.90
38237;DHT22;50101;49.438;11.098;2022-11-30T06:12:55;17.70;60.90
38237;DHT22;50101;49.438;11.098;2022-11-30T06:15:21;17.70;60.90
38237;DHT22;50101;49.438;11.098;2022-11-30T06:17:48;17.70;60.90
38237;DHT22;50101;49.438;11.098;2022-11-30T06:20:15;17.70;60.90
38237;DHT22;50101;49.438;11.098;2022-11-30T06:22:44;17.70;60.90
38237;DHT22;50101;49.438;11.098;2022-11-30T06:25:11;17.70;60.90
38237;DHT22;50101;49.438;11.098;2022-11-30T06:27:38;17.70;60.90
38237;DHT22;50101;49.438;11.098;2022-11-30T06:30:05;17.70;60.90
38237;DHT22;50101;49.438;11.098;2022-11-30T06:32:32;17.80;61.00
38237;DHT22;50101;49.438;11.098;2022-11-30T06:34:58;17.80;60.90
38237;DHT22;50101;49.438;11.098;2022-11-30T06:37:25;17.70;60.80
38237;DHT22;50101;49.438;11.098;2022-11-30T06:39:51;17.80;60.80
38237;DHT22;50101;49.438;11.098;2022-11-30T06:42:34;17.80;60.80
38237;DHT22;50101;49.438;11.098;2022-11-30T06:45:01;17.80;60.80
38237;DHT22;50101;49.438;11.098;2022-11-30T06:47:28;17.80;60.80
38237;DHT22;50101;49.438;11.098;2022-11-30T06:49:55;17.80;60.80
38237;DHT22;50101;49.438;11.098;2022-11-30T06:52:22;17.80;60.20
38237;DHT22;50101;49.438;11.098;2022-11-30T06:54:49;17.80;60.80
38237;DHT22;50101;49.438;11.098;2022-11-30T06:57:16;17.80;60.80
38237;DHT22;50101;49.438;11.098;2022-11-30T06:59:43;17.80;60.80
38237;DHT22;50101;49.438;11.098;2022-11-30T07:02:11;17.80;60.80
38237;DHT22;50101;49.438;11.098;2022-11-30T07:04:45;17.80;60.80
38237;DHT22;50101;49.438;11.098;2022-11-30T07:07:12;17.80;60.80
38237;DHT22;50101;49.438;11.098;2022-11-30T07:09:39;17.80;60.80
38237;DHT22;50101;49.438;11.098;2022-11-30T07:12:06;17.90;60.90
38237;DHT22;50101;49.438;11.098;2022-11-30T07:14:33;17.80;60.80
38237;DHT22;50101;49.438;11.098;2022-11-30T07:17:00;17.90;60.90
38237;DHT22;50101;49.438;11.098;2022-11-30T07:19:30;17.90;60.90
38237;DHT22;50101;49.438;11.098;2022-11-30T07:21:58;17.90;60.90
38237;DHT22;50101;49.438;11.098;2022-11-30T07:24:24;17.90;61.00
38237;DHT22;50101;49.438;11.098;2022-11-30T07:27:10;17.90;61.00
38237;DHT22;50101;49.438;11.098;2022-11-30T07:29:36;17.90;61.00
38237;DHT22;50101;49.438;11.098;2022-11-30T07:32:03;17.90;61.00
38237;DHT22;50101;49.438;11.098;2022-11-30T07:34:30;17.90;61.00
38237;DHT22;50101;49.438;11.098;2022-11-30T07:36:57;17.90;61.00
38237;DHT22;50101;49.438;11.098;2022-11-30T07:39:23;17.90;61.00
38237;DHT22;50101;49.438;11.098;2022-11-30T07:41:50;17.90;61.00
38237;DHT22;50101;49.438;11.098;2022-11-30T07:44:16;17.90;61.00
38237;DHT22;50101;49.438;11.098;2022-11-30T07:46:43;17.90;61.00
38237;DHT22;50101;49.438;11.098;2022-11-30T07:49:10;17.90;61.80
38237;DHT22;50101;49.438;11.098;2022-11-30T07:51:37;18.00;61.10
38237;DHT22;50101;49.438;11.098;2022-11-30T07:54:04;18.00;61.10
38237;DHT22;50101;49.438;11.098;2022-11-30T07:56:30;18.00;61.10
38237;DHT22;50101;49.438;11.098;2022-11-30T07:58:59;18.00;61.10
38237;DHT22;50101;49.438;11.098;2022-11-30T08:01:31;18.00;61.10
38237;DHT22;50101;49.438;11.098;2022-11-30T08:03:58;18.00;61.10
38237;DHT22;50101;49.438;11.098;2022-11-30T08:06:27;18.00;61.00
38237;DHT22;50101;49.438;11.098;2022-11-30T08:08:57;18.00;61.10
38237;DHT22;50101;49.438;11.098;2022-11-30T08:11:27;18.00;61.00
38237;DHT22;50101;49.438;11.098;2022-11-30T08:13:54;18.00;61.00
38237;DHT22;50101;49.438;11.098;2022-11-30T08:16:22;18.00;61.00
38237;DHT22;50101;49.438;11.098;2022-11-30T08:18:50;18.00;60.90
38237;DHT22;50101;49.438;11.098;2022-11-30T08:21:19;18.00;60.20
38237;DHT22;50101;49.438;11.098;2022-11-30T08:23:48;18.00;60.80
38237;DHT22;50101;49.438;11.098;2022-11-30T08:26:23;18.10;60.70
38237;DHT22;50101;49.438;11.098;2022-11-30T08:28:53;18.10;60.70
38237;DHT22;50101;49.438;11.098;2022-11-30T08:31:31;18.10;60.60
38237;DHT22;50101;49.438;11.098;2022-11-30T08:34:03;18.10;60.60
38237;DHT22;50101;49.438;11.098;2022-11-30T08:36:30;18.10;60.70
38237;DHT22;50101;49.438;11.098;2022-11-30T08:38:58;18.10;60.70
38237;DHT22;50101;49.438;11.098;2022-11-30T08:41:25;18.10;60.60
38237;DHT22;50101;49.438;11.098;2022-11-30T08:43:52;18.10;60.70
38237;DHT22;50101;49.438;11.098;2022-11-30T08:46:21;18.10;60.70
38237;DHT22;50101;49.438;11.098;2022-11-30T08:49:08;18.10;60.60
38237;DHT22;50101;49.438;11.098;2022-11-30T08:51:54;18.10;60.70
38237;DHT22;50101;49.438;11.098;2022-11-30T08:54:42;18.10;60.70
38237;DHT22;50101;49.438;11.098;2022-11-30T08:57:11;18.10;60.70
38237;DHT22;50101;49.438;11.098;2022-11-30T08:59:37;18.10;60.70
38237;DHT22;50101;49.438;11.098;2022-11-30T09:02:04;18.10;60.60
38237;DHT22;50101;49.438;11.098;2022-11-30T09:04:31;18.10;60.80
38237;DHT22;50101;49.438;11.098;2022-11-30T09:06:58;18.10;60.80
38237;DHT22;50101;49.438;11.098;2022-11-30T09:09:26;18.10;60.80
38237;DHT22;50101;49.438;11.098;2022-11-30T09:11:52;18.10;60.10
38237;DHT22;50101;49.438;11.098;2022-11-30T09:14:19;18.10;60.70
38237;DHT22;50101;49.438;11.098;2022-11-30T09:16:46;18.10;60.70
38237;DHT22;50101;49.438;11.098;2022-11-30T09:19:12;18.10;60.70
38237;DHT22;50101;49.438;11.098;2022-11-30T09:21:39;18.10;60.60
38237;DHT22;50101;49.438;11.098;2022-11-30T09:24:06;18.10;60.40
38237;DHT22;50101;49.438;11.098;2022-11-30T09:26:33;18.10;60.40
38237;DHT22;50101;49.438;11.098;2022-11-30T09:28:59;18.10;60.30
38237;DHT22;50101;49.438;11.098;2022-11-30T09:31:26;18.10;60.40
38237;DHT22;50101;49.438;11.098;2022-11-30T09:33:55;18.10;60.20
38237;DHT22;50101;49.438;11.098;2022-11-30T09:36:23;18.10;59.90
38237;DHT22;50101;49.438;11.098;2022-11-30T09:38:54;18.10;59.90
38237;DHT22;50101;49.438;11.098;2022-11-30T09:44:45;18.10;60.00
38237;DHT22;50101;49.438;11.098;2022-11-30T09:47:36;18.00;60.00
38237;DHT22;50101;49.438;11.098;2022-11-30T09:50:13;18.00;59.40
38237;DHT22;50101;49.438;11.098;2022-11-30T09:52:51;18.00;59.90
38237;DHT22;50101;49.438;11.098;2022-11-30T09:55:40;18.00;59.70
38237;DHT22;50101;49.438;11.098;2022-11-30T10:00:59;18.10;59.90
38237;DHT22;50101;49.438;11.098;2022-11-30T10:03:33;18.10;60.00
38237;DHT22;50101;49.438;11.098;2022-11-30T10:06:10;18.00;60.00
38237;DHT22;50101;49.438;11.098;2022-11-30T10:08:46;18.00;60.00
38237;DHT22;50101;49.438;11.098;2022-11-30T10:14:31;18.00;60.00
38237;DHT22;50101;49.438;11.098;2022-11-30T10:17:20;18.10;60.10
38237;DHT22;50101;49.438;11.098;2022-11-30T10:20:24;18.00;60.00
38237;DHT22;50101;49.438;11.098;2022-11-30T10:26:14;18.10;60.20
38237;DHT22;50101;49.438;11.098;2022-11-30T10:28:50;18.10;60.20
38237;DHT22;50101;49.438;11.098;2022-11-30T10:31:33;18.10;60.20
38237;DHT22;50101;49.438;11.098;2022-11-30T10:34:22;18.10;60.30
38237;DHT22;50101;49.438;11.098;2022-11-30T10:37:03;18.10;60.30
38237;DHT22;50101;49.438;11.098;2022-11-30T10:39:42;18.10;60.30
38237;DHT22;50101;49.438;11.098;2022-11-30T10:42:18;18.10;60.30
38237;DHT22;50101;49.438;11.098;2022-11-30T10:45:01;18.10;60.40
38237;DHT22;50101;49.438;11.098;2022-11-30T10:47:31;18.10;60.40
38237;DHT22;50101;49.438;11.098;2022-11-30T10:50:05;18.10;60.40
38237;DHT22;50101;49.438;11.098;2022-11-30T10:52:45;18.10;60.40
38237;DHT22;50101;49.438;11.098;2022-11-30T10:55:21;18.10;60.40
38237;DHT22;50101;49.438;11.098;2022-11-30T10:57:53;18.10;60.50
38237;DHT22;50101;49.438;11.098;2022-11-30T11:00:21;18.10;60.50
38237;DHT22;50101;49.438;11.098;2022-11-30T11:02:48;18.10;60.60
38237;DHT22;50101;49.438;11.098;2022-11-30T11:05:24;18.10;60.60
38237;DHT22;50101;49.438;11.098;2022-11-30T11:08:00;18.10;60.60
38237;DHT22;50101;49.438;11.098;2022-11-30T11:10:33;18.10;60.70
38237;DHT22;50101;49.438;11.098;2022-11-30T11:13:01;18.10;60.70
38237;DHT22;50101;49.438;11.098;2022-11-30T11:15:31;18.10;60.70
38237;DHT22;50101;49.438;11.098;2022-11-30T11:18:22;18.10;60.80
38237;DHT22;50101;49.438;11.098;2022-11-30T11:23:39;18.10;60.70
38237;DHT22;50101;49.438;11.098;2022-11-30T11:26:15;18.10;60.70
38237;DHT22;50101;49.438;11.098;2022-11-30T11:28:47;18.10;60.70
38237;DHT22;50101;49.438;11.098;2022-11-30T11:31:39;18.10;60.50
38237;DHT22;50101;49.438;11.098;2022-11-30T11:34:26;18.10;60.30
38237;DHT22;50101;49.438;11.098;2022-11-30T11:39:58;18.10;60.20
38237;DHT22;50101;49.438;11.098;2022-11-30T11:42:30;18.10;60.10
38237;DHT22;50101;49.438;11.098;2022-11-30T11:44:59;18.00;60.00
38237;DHT22;50101;49.438;11.098;2022-11-30T11:47:38;18.10;60.00
38237;DHT22;50101;49.438;11.098;2022-11-30T11:53:21;18.10;60.00
38237;DHT22;50101;49.438;11.098;2022-11-30T11:55:58;18.10;60.00
38237;DHT22;50101;49.438;11.098;2022-11-30T11:58:34;18.10;60.00
38237;DHT22;50101;49.438;11.098;2022-11-30T12:01:06;18.10;59.90
38237;DHT22;50101;49.438;11.098;2022-11-30T12:06:21;18.10;60.00
38237;DHT22;50101;49.438;11.098;2022-11-30T12:08:52;18.10;60.00
38237;DHT22;50101;49.438;11.098;2022-11-30T12:14:03;18.20;60.10
38237;DHT22;50101;49.438;11.098;2022-11-30T12:19:16;18.10;60.00
38237;DHT22;50101;49.438;11.098;2022-11-30T12:22:16;18.10;60.20
38237;DHT22;50101;49.438;11.098;2022-11-30T12:25:08;18.10;60.30
38237;DHT22;50101;49.438;11.098;2022-11-30T12:36:12;18.20;60.50
38237;DHT22;50101;49.438;11.098;2022-11-30T12:38:47;18.20;60.60
38237;DHT22;50101;49.438;11.098;2022-11-30T12:46:53;18.20;60.60
38237;DHT22;50101;49.438;11.098;2022-11-30T12:52:53;18.20;60.60
38237;DHT22;50101;49.438;11.098;2022-11-30T13:03:52;18.20;60.70
38237;DHT22;50101;49.438;11.098;2022-11-30T13:06:36;18.20;60.70
38237;DHT22;50101;49.438;11.098;2022-11-30T13:09:27;18.20;60.70
38237;DHT22;50101;49.438;11.098;2022-11-30T13:12:01;18.20;60.70
38237;DHT22;50101;49.438;11.098;2022-11-30T13:14:32;18.20;60.80
38237;DHT22;50101;49.438;11.098;2022-11-30T13:17:05;18.20;60.90
38237;DHT22;50101;49.438;11.098;2022-11-30T13:19:59;18.20;61.00
38237;DHT22;50101;49.438;11.098;2022-11-30T13:22:41;18.30;61.10
38237;DHT22;50101;49.438;11.098;2022-11-30T13:33:48;18.20;60.60
38237;DHT22;50101;49.438;11.098;2022-11-30T13:36:32;18.30;61.30
38237;DHT22;50101;49.438;11.098;2022-11-30T13:39:19;18.20;61.30
38237;DHT22;50101;49.438;11.098;2022-11-30T13:44:32;18.30;61.30
38237;DHT22;50101;49.438;11.098;2022-11-30T13:47:01;18.30;61.30
38237;DHT22;50101;49.438;11.098;2022-11-30T13:49:33;18.30;61.40
38237;DHT22;50101;49.438;11.098;2022-11-30T13:52:04;18.30;61.50
38237;DHT22;50101;49.438;11.098;2022-11-30T13:54:50;18.30;61.60
38237;DHT22;50101;49.438;11.098;2022-11-30T13:59:54;18.30;61.70
38237;DHT22;50101;49.438;11.098;2022-11-30T14:07:44;18.30;61.60
38237;DHT22;50101;49.438;11.098;2022-11-30T14:13:01;18.30;61.70
38237;DHT22;50101;49.438;11.098;2022-11-30T14:25:52;18.30;62.00
38237;DHT22;50101;49.438;11.098;2022-11-30T14:28:23;18.30;62.00
38237;DHT22;50101;49.438;11.098;2022-11-30T14:30:51;18.30;62.20
38237;DHT22;50101;49.438;11.098;2022-11-30T14:36:08;18.30;63.00
38237;DHT22;50101;49.438;11.098;2022-11-30T14:38:40;18.30;62.60
38237;DHT22;50101;49.438;11.098;2022-11-30T14:41:28;18.30;62.70
38237;DHT22;50101;49.438;11.098;2022-11-30T14:44:02;18.40;62.90
38237;DHT22;50101;49.438;11.098;2022-11-30T14:46:29;18.40;62.90
38237;DHT22;50101;49.438;11.098;2022-11-30T14:51:42;18.30;62.20
38237;DHT22;50101;49.438;11.098;2022-11-30T14:54:15;18.40;62.90
38237;DHT22;50101;49.438;11.098;2022-11-30T14:56:47;18.30;62.80
38237;DHT22;50101;49.438;11.098;2022-11-30T14:59:39;18.40;62.80
38237;DHT22;50101;49.438;11.098;2022-11-30T15:02:17;18.40;62.80
38237;DHT22;50101;49.438;11.098;2022-11-30T15:04:47;18.30;62.80
38237;DHT22;50101;49.438;11.098;2022-11-30T15:07:15;18.30;63.50
38237;DHT22;50101;49.438;11.098;2022-11-30T15:09:43;18.30;62.80
38237;DHT22;50101;49.438;11.098;2022-11-30T15:12:20;18.30;62.80
38237;DHT22;50101;49.438;11.098;2022-11-30T15:17:27;18.30;63.00
38237;DHT22;50101;49.438;11.098;2022-11-30T15:19:54;18.40;63.10
38237;DHT22;50101;49.438;11.098;2022-11-30T15:22:21;18.40;63.10
38237;DHT22;50101;49.438;11.098;2022-11-30T15:24:48;18.40;63.10
38237;DHT22;50101;49.438;11.098;2022-11-30T15:27:20;18.40;63.10
38237;DHT22;50101;49.438;11.098;2022-11-30T15:29:56;18.30;63.00
38237;DHT22;50101;49.438;11.098;2022-11-30T15:32:24;18.40;63.10
38237;DHT22;50101;49.438;11.098;2022-11-30T15:34:56;18.40;63.10
38237;DHT22;50101;49.438;11.098;2022-11-30T15:37:32;18.40;63.10
38237;DHT22;50101;49.438;11.098;2022-11-30T15:40:03;18.30;62.90
38237;DHT22;50101;49.438;11.098;2022-11-30T15:42:33;18.40;63.00
38237;DHT22;50101;49.438;11.098;2022-11-30T15:47:53;18.40;63.00
38237;DHT22;50101;49.438;11.098;2022-11-30T15:55:58;18.40;63.00
38237;DHT22;50101;49.438;11.098;2022-11-30T15:58:40;18.40;63.00
38237;DHT22;50101;49.438;11.098;2022-11-30T16:01:18;18.40;63.10
38237;DHT22;50101;49.438;11.098;2022-11-30T16:06:28;18.40;63.00
38237;DHT22;50101;49.438;11.098;2022-11-30T16:08:56;18.40;63.00
38237;DHT22;50101;49.438;11.098;2022-11-30T16:11:23;18.30;62.80
38237;DHT22;50101;49.438;11.098;2022-11-30T16:13:50;18.40;62.30
38237;DHT22;50101;49.438;11.098;2022-11-30T16:16:19;18.40;62.90
38237;DHT22;50101;49.438;11.098;2022-11-30T16:18:47;18.40;62.80
38237;DHT22;50101;49.438;11.098;2022-11-30T16:21:17;18.40;62.70
38237;DHT22;50101;49.438;11.098;2022-11-30T16:23:45;18.40;62.70
38237;DHT22;50101;49.438;11.098;2022-11-30T16:26:14;18.30;62.60
38237;DHT22;50101;49.438;11.098;2022-11-30T16:29:00;18.40;62.70
38237;DHT22;50101;49.438;11.098;2022-11-30T16:31:29;18.30;62.50
38237;DHT22;50101;49.438;11.098;2022-11-30T16:33:56;18.40;62.50
38237;DHT22;50101;49.438;11.098;2022-11-30T16:36:23;18.40;62.50
38237;DHT22;50101;49.438;11.098;2022-11-30T16:38:51;18.40;62.40
38237;DHT22;50101;49.438;11.098;2022-11-30T16:41:23;18.40;62.40
38237;DHT22;50101;49.438;11.098;2022-11-30T16:43:52;18.40;62.30
38237;DHT22;50101;49.438;11.098;2022-11-30T16:46:24;18.40;62.30
38237;DHT22;50101;49.438;11.098;2022-11-30T16:48:52;18.40;62.30
38237;DHT22;50101;49.438;11.098;2022-11-30T16:51:24;18.30;62.20
38237;DHT22;50101;49.438;11.098;2022-11-30T16:53:52;18.40;62.30
38237;DHT22;50101;49.438;11.098;2022-11-30T16:56:19;18.40;62.30
38237;DHT22;50101;49.438;11.098;2022-11-30T16:58:46;18.30;62.20
38237;DHT22;50101;49.438;11.098;2022-11-30T17:01:17;18.40;62.20
38237;DHT22;50101;49.438;11.098;2022-11-30T17:03:48;18.40;62.20
38237;DHT22;50101;49.438;11.098;2022-11-30T17:06:18;18.40;62.10
38237;DHT22;50101;49.438;11.098;2022-11-30T17:08:46;18.40;62.10
38237;DHT22;50101;49.438;11.098;2022-11-30T17:11:20;18.40;62.10
38237;DHT22;50101;49.438;11.098;2022-11-30T17:13:48;18.40;62.10
38237;DHT22;50101;49.438;11.098;2022-11-30T17:16:15;18.40;62.10
38237;DHT22;50101;49.438;11.098;2022-11-30T17:18:42;18.40;62.10
38237;DHT22;50101;49.438;11.098;2022-11-30T17:21:16;18.30;62.00
38237;DHT22;50101;49.438;11.098;2022-11-30T17:23:43;18.40;62.10
38237;DHT22;50101;49.438;11.098;2022-11-30T17:26:11;18.40;62.10
38237;DHT22;50101;49.438;11.098;2022-11-30T17:28:38;18.40;62.00
38237;DHT22;50101;49.438;11.098;2022-11-30T17:31:08;18.40;61.50
38237;DHT22;50101;49.438;11.098;2022-11-30T17:33:36;18.40;62.10
38237;DHT22;50101;49.438;11.098;2022-11-30T17:36:04;18.40;62.20